sensor_id;sensor_type;location;lat;lon;timestamp;P1;durP1;ratioP1;P2;durP2;ratioP2
48727;SDS011;34527;45.618;5.130;2023-08-06T00:02:20;1.48;;;1.00;;
48727;SDS011;34527;45.618;5.130;2023-08-06T00:04:45;1.20;;;1.10;;
48727;SDS011;34527;45.618;5.130;2023-08-06T00:07:11;1.10;;;1.00;;
48727;SDS011;34527;45.618;5.130;2023-08-06T00:09:36;1.33;;;1.00;;
48727;SDS011;34527;45.618;5.130;2023-08-06T00:12:02;2.13;;;1.00;;
48727;SDS011;34527;45.618;5.130;2023-08-06T00:14:28;0.68;;;0.68;;
48727;SDS011;34527;45.618;5.130;2023-08-06T00:16:53;1.92;;;1.10;;
48727;SDS011;34527;45.618;5.130;2023-08-06T00:19:19;2.50;;;1.20;;
48727;SDS011;34527;45.618;5.130;2023-08-06T00:21:45;1.00;;;1.00;;
48727;SDS011;34527;45.618;5.130;2023-08-06T00:24:10;0.80;;;0.80;;
48727;SDS011;34527;45.618;5.130;2023-08-06T00:26:36;1.67;;;1.10;;
48727;SDS011;34527;45.618;5.130;2023-08-06T00:29:01;1.58;;;0.80;;
48727;SDS011;34527;45.618;5.130;2023-08-06T00:31:27;2.33;;;0.75;;
48727;SDS011;34527;45.618;5.130;2023-08-06T00:33:53;1.17;;;0.88;;
48727;SDS011;34527;45.618;5.130;2023-08-06T00:36:18;2.10;;;1.05;;
48727;SDS011;34527;45.618;5.130;2023-08-06T00:38:44;1.25;;;0.88;;
48727;SDS011;34527;45.618;5.130;2023-08-06T00:41:10;1.42;;;0.93;;
48727;SDS011;34527;45.618;5.130;2023-08-06T00:43:35;1.67;;;0.90;;
48727;SDS011;34527;45.618;5.130;2023-08-06T00:46:01;1.17;;;0.90;;
48727;SDS011;34527;45.618;5.130;2023-08-06T00:48:27;0.77;;;0.70;;
48727;SDS011;34527;45.618;5.130;2023-08-06T00:50:52;3.20;;;1.00;;
48727;SDS011;34527;45.618;5.130;2023-08-06T00:53:18;1.52;;;0.85;;
48727;SDS011;34527;45.618;5.130;2023-08-06T00:55:44;1.13;;;0.82;;
48727;SDS011;34527;45.618;5.130;2023-08-06T00:58:11;1.10;;;0.77;;
48727;SDS011;34527;45.618;5.130;2023-08-06T01:00:38;1.48;;;0.95;;
48727;SDS011;34527;45.618;5.130;2023-08-06T01:03:04;0.98;;;0.77;;
48727;SDS011;34527;45.618;5.130;2023-08-06T01:05:30;0.82;;;0.73;;
48727;SDS011;34527;45.618;5.130;2023-08-06T01:13:43;2.25;;;1.10;;
48727;SDS011;34527;45.618;5.130;2023-08-06T01:16:18;0.98;;;0.85;;
48727;SDS011;34527;45.618;5.130;2023-08-06T01:18:44;0.95;;;0.85;;
48727;SDS011;34527;45.618;5.130;2023-08-06T01:21:14;1.13;;;0.88;;
48727;SDS011;34527;45.618;5.130;2023-08-06T01:23:42;1.48;;;1.00;;
48727;SDS011;34527;45.618;5.130;2023-08-06T01:26:14;1.02;;;0.93;;
48727;SDS011;34527;45.618;5.130;2023-08-06T01:31:26;2.67;;;1.00;;
48727;SDS011;34527;45.618;5.130;2023-08-06T01:33:55;1.42;;;0.98;;
48727;SDS011;34527;45.618;5.130;2023-08-06T01:36:23;2.10;;;1.10;;
48727;SDS011;34527;45.618;5.130;2023-08-06T01:38:51;0.93;;;0.90;;
48727;SDS011;34527;45.618;5.130;2023-08-06T01:41:18;1.85;;;0.90;;
48727;SDS011;34527;45.618;5.130;2023-08-06T01:43:43;1.30;;;0.90;;
48727;SDS011;34527;45.618;5.130;2023-08-06T01:46:09;2.10;;;0.95;;
48727;SDS011;34527;45.618;5.130;2023-08-06T01:48:35;3.15;;;0.93;;
48727;SDS011;34527;45.618;5.130;2023-08-06T01:51:01;1.60;;;0.90;;
48727;SDS011;34527;45.618;5.130;2023-08-06T01:53:29;2.25;;;1.00;;
48727;SDS011;34527;45.618;5.130;2023-08-06T01:55:54;1.50;;;0.80;;
48727;SDS011;34527;45.618;5.130;2023-08-06T01:58:20;2.15;;;1.10;;
48727;SDS011;34527;45.618;5.130;2023-08-06T02:00:45;1.23;;;0.73;;
48727;SDS011;34527;45.618;5.130;2023-08-06T02:03:11;1.65;;;1.10;;
48727;SDS011;34527;45.618;5.130;2023-08-06T02:05:36;2.25;;;0.95;;
48727;SDS011;34527;45.618;5.130;2023-08-06T02:08:02;1.27;;;0.93;;
48727;SDS011;34527;45.618;5.130;2023-08-06T02:10:27;3.75;;;1.30;;
48727;SDS011;34527;45.618;5.130;2023-08-06T02:12:53;1.63;;;0.90;;
48727;SDS011;34527;45.618;5.130;2023-08-06T02:15:19;1.38;;;0.88;;
48727;SDS011;34527;45.618;5.130;2023-08-06T02:17:44;6.35;;;1.30;;
48727;SDS011;34527;45.618;5.130;2023-08-06T02:20:10;3.22;;;1.17;;
48727;SDS011;34527;45.618;5.130;2023-08-06T02:22:36;2.40;;;1.17;;
48727;SDS011;34527;45.618;5.130;2023-08-06T02:25:01;4.45;;;1.08;;
48727;SDS011;34527;45.618;5.130;2023-08-06T02:27:27;2.88;;;1.05;;
48727;SDS011;34527;45.618;5.130;2023-08-06T02:29:52;3.00;;;1.48;;
48727;SDS011;34527;45.618;5.130;2023-08-06T02:32:18;4.35;;;1.02;;
48727;SDS011;34527;45.618;5.130;2023-08-06T02:34:44;2.45;;;1.10;;
48727;SDS011;34527;45.618;5.130;2023-08-06T02:37:09;4.32;;;1.20;;
48727;SDS011;34527;45.618;5.130;2023-08-06T02:39:35;3.97;;;1.10;;
48727;SDS011;34527;45.618;5.130;2023-08-06T02:42:04;2.25;;;1.00;;
48727;SDS011;34527;45.618;5.130;2023-08-06T02:44:31;2.47;;;1.17;;
48727;SDS011;34527;45.618;5.130;2023-08-06T02:46:56;2.28;;;1.00;;
48727;SDS011;34527;45.618;5.130;2023-08-06T02:49:22;4.07;;;1.30;;
48727;SDS011;34527;45.618;5.130;2023-08-06T02:51:47;1.80;;;1.02;;
48727;SDS011;34527;45.618;5.130;2023-08-06T02:54:13;2.78;;;1.00;;
48727;SDS011;34527;45.618;5.130;2023-08-06T02:56:39;3.78;;;1.13;;
48727;SDS011;34527;45.618;5.130;2023-08-06T02:59:09;3.97;;;1.48;;
48727;SDS011;34527;45.618;5.130;2023-08-06T03:01:35;4.25;;;1.40;;
48727;SDS011;34527;45.618;5.130;2023-08-06T03:04:01;4.88;;;1.70;;
48727;SDS011;34527;45.618;5.130;2023-08-06T03:06:27;7.68;;;1.70;;
48727;SDS011;34527;45.618;5.130;2023-08-06T03:08:52;7.47;;;1.63;;
48727;SDS011;34527;45.618;5.130;2023-08-06T03:11:18;5.80;;;1.75;;
48727;SDS011;34527;45.618;5.130;2023-08-06T03:13:43;5.05;;;1.50;;
48727;SDS011;34527;45.618;5.130;2023-08-06T03:16:09;10.15;;;2.58;;
48727;SDS011;34527;45.618;5.130;2023-08-06T03:18:35;9.75;;;2.00;;
48727;SDS011;34527;45.618;5.130;2023-08-06T03:21:00;8.90;;;1.80;;
48727;SDS011;34527;45.618;5.130;2023-08-06T03:23:26;7.90;;;1.85;;
48727;SDS011;34527;45.618;5.130;2023-08-06T03:25:51;9.25;;;1.73;;
48727;SDS011;34527;45.618;5.130;2023-08-06T03:28:17;8.15;;;1.98;;
48727;SDS011;34527;45.618;5.130;2023-08-06T03:30:43;9.07;;;2.53;;
48727;SDS011;34527;45.618;5.130;2023-08-06T03:33:08;9.43;;;1.73;;
48727;SDS011;34527;45.618;5.130;2023-08-06T03:35:34;10.52;;;2.10;;
48727;SDS011;34527;45.618;5.130;2023-08-06T03:37:59;9.15;;;2.00;;
48727;SDS011;34527;45.618;5.130;2023-08-06T03:40:25;9.18;;;1.80;;
48727;SDS011;34527;45.618;5.130;2023-08-06T03:42:51;6.75;;;1.85;;
48727;SDS011;34527;45.618;5.130;2023-08-06T03:45:16;9.55;;;2.10;;
48727;SDS011;34527;45.618;5.130;2023-08-06T03:47:42;5.50;;;1.77;;
48727;SDS011;34527;45.618;5.130;2023-08-06T03:50:08;5.07;;;1.70;;
48727;SDS011;34527;45.618;5.130;2023-08-06T03:52:34;7.80;;;1.83;;
48727;SDS011;34527;45.618;5.130;2023-08-06T03:54:59;11.80;;;1.95;;
48727;SDS011;34527;45.618;5.130;2023-08-06T03:57:25;9.85;;;2.05;;
48727;SDS011;34527;45.618;5.130;2023-08-06T03:59:50;9.27;;;1.98;;
48727;SDS011;34527;45.618;5.130;2023-08-06T04:02:16;10.90;;;2.03;;
48727;SDS011;34527;45.618;5.130;2023-08-06T04:04:42;7.00;;;2.10;;
48727;SDS011;34527;45.618;5.130;2023-08-06T04:07:07;10.75;;;2.22;;
48727;SDS011;34527;45.618;5.130;2023-08-06T04:09:33;9.00;;;1.60;;
48727;SDS011;34527;45.618;5.130;2023-08-06T04:11:58;9.88;;;2.03;;
48727;SDS011;34527;45.618;5.130;2023-08-06T04:14:26;7.80;;;2.25;;
48727;SDS011;34527;45.618;5.130;2023-08-06T04:16:52;12.75;;;2.45;;
48727;SDS011;34527;45.618;5.130;2023-08-06T04:19:18;11.35;;;2.03;;
48727;SDS011;34527;45.618;5.130;2023-08-06T04:21:44;7.10;;;1.77;;
48727;SDS011;34527;45.618;5.130;2023-08-06T04:24:09;8.20;;;1.85;;
48727;SDS011;34527;45.618;5.130;2023-08-06T04:26:35;7.68;;;2.13;;
48727;SDS011;34527;45.618;5.130;2023-08-06T04:29:00;10.63;;;2.42;;
48727;SDS011;34527;45.618;5.130;2023-08-06T04:31:26;11.43;;;2.05;;
48727;SDS011;34527;45.618;5.130;2023-08-06T04:33:51;14.50;;;2.30;;
48727;SDS011;34527;45.618;5.130;2023-08-06T04:36:17;6.28;;;1.75;;
48727;SDS011;34527;45.618;5.130;2023-08-06T04:38:42;10.82;;;2.30;;
48727;SDS011;34527;45.618;5.130;2023-08-06T04:41:10;8.93;;;1.88;;
48727;SDS011;34527;45.618;5.130;2023-08-06T04:43:36;10.13;;;1.95;;
48727;SDS011;34527;45.618;5.130;2023-08-06T04:46:02;12.05;;;2.20;;
48727;SDS011;34527;45.618;5.130;2023-08-06T04:48:27;9.00;;;2.40;;
48727;SDS011;34527;45.618;5.130;2023-08-06T04:50:53;7.55;;;2.28;;
48727;SDS011;34527;45.618;5.130;2023-08-06T04:53:19;11.68;;;2.30;;
48727;SDS011;34527;45.618;5.130;2023-08-06T04:55:45;7.68;;;2.20;;
48727;SDS011;34527;45.618;5.130;2023-08-06T04:58:13;6.05;;;1.50;;
48727;SDS011;34527;45.618;5.130;2023-08-06T05:00:39;4.70;;;1.27;;
48727;SDS011;34527;45.618;5.130;2023-08-06T05:03:05;5.05;;;1.75;;
48727;SDS011;34527;45.618;5.130;2023-08-06T05:05:31;6.38;;;1.05;;
48727;SDS011;34527;45.618;5.130;2023-08-06T05:07:57;4.00;;;1.25;;
48727;SDS011;34527;45.618;5.130;2023-08-06T05:10:25;9.18;;;1.65;;
48727;SDS011;34527;45.618;5.130;2023-08-06T05:12:52;3.90;;;1.20;;
48727;SDS011;34527;45.618;5.130;2023-08-06T05:15:18;4.88;;;1.45;;
48727;SDS011;34527;45.618;5.130;2023-08-06T05:17:44;4.50;;;1.20;;
48727;SDS011;34527;45.618;5.130;2023-08-06T05:20:10;3.97;;;1.40;;
48727;SDS011;34527;45.618;5.130;2023-08-06T05:22:36;3.55;;;1.20;;
48727;SDS011;34527;45.618;5.130;2023-08-06T05:25:01;3.30;;;1.00;;
48727;SDS011;34527;45.618;5.130;2023-08-06T05:27:27;4.38;;;1.52;;
48727;SDS011;34527;45.618;5.130;2023-08-06T05:29:54;3.97;;;1.30;;
48727;SDS011;34527;45.618;5.130;2023-08-06T05:32:21;6.22;;;1.20;;
48727;SDS011;34527;45.618;5.130;2023-08-06T05:34:46;4.55;;;1.20;;
48727;SDS011;34527;45.618;5.130;2023-08-06T05:37:12;6.85;;;1.33;;
48727;SDS011;34527;45.618;5.130;2023-08-06T05:39:37;4.95;;;1.40;;
48727;SDS011;34527;45.618;5.130;2023-08-06T05:42:03;5.85;;;1.40;;
48727;SDS011;34527;45.618;5.130;2023-08-06T05:44:29;3.83;;;1.30;;
48727;SDS011;34527;45.618;5.130;2023-08-06T05:46:55;3.45;;;0.93;;
48727;SDS011;34527;45.618;5.130;2023-08-06T05:49:21;4.93;;;1.67;;
48727;SDS011;34527;45.618;5.130;2023-08-06T05:51:46;5.93;;;1.60;;
48727;SDS011;34527;45.618;5.130;2023-08-06T05:54:13;5.78;;;1.30;;
48727;SDS011;34527;45.618;5.130;2023-08-06T05:56:39;7.18;;;1.65;;
48727;SDS011;34527;45.618;5.130;2023-08-06T05:59:04;3.92;;;1.25;;
48727;SDS011;34527;45.618;5.130;2023-08-06T06:01:30;3.00;;;1.08;;
48727;SDS011;34527;45.618;5.130;2023-08-06T06:03:56;3.60;;;1.20;;
48727;SDS011;34527;45.618;5.130;2023-08-06T06:06:21;2.65;;;1.23;;
48727;SDS011;34527;45.618;5.130;2023-08-06T06:08:47;4.78;;;1.30;;
48727;SDS011;34527;45.618;5.130;2023-08-06T06:11:12;3.58;;;1.17;;
48727;SDS011;34527;45.618;5.130;2023-08-06T06:13:38;4.43;;;1.30;;
48727;SDS011;34527;45.618;5.130;2023-08-06T06:16:04;5.35;;;1.23;;
48727;SDS011;34527;45.618;5.130;2023-08-06T06:18:30;3.58;;;1.42;;
48727;SDS011;34527;45.618;5.130;2023-08-06T06:20:56;2.25;;;1.15;;
48727;SDS011;34527;45.618;5.130;2023-08-06T06:23:21;6.00;;;1.42;;
48727;SDS011;34527;45.618;5.130;2023-08-06T06:25:48;4.55;;;1.30;;
48727;SDS011;34527;45.618;5.130;2023-08-06T06:28:16;3.58;;;1.10;;
48727;SDS011;34527;45.618;5.130;2023-08-06T06:30:42;5.43;;;1.10;;
48727;SDS011;34527;45.618;5.130;2023-08-06T06:33:08;1.67;;;0.93;;
48727;SDS011;34527;45.618;5.130;2023-08-06T06:35:34;2.33;;;1.13;;
48727;SDS011;34527;45.618;5.130;2023-08-06T06:37:59;2.42;;;1.10;;
48727;SDS011;34527;45.618;5.130;2023-08-06T06:40:25;6.63;;;1.20;;
48727;SDS011;34527;45.618;5.130;2023-08-06T06:42:51;4.47;;;1.65;;
48727;SDS011;34527;45.618;5.130;2023-08-06T06:45:17;3.88;;;1.00;;
48727;SDS011;34527;45.618;5.130;2023-08-06T06:47:42;4.20;;;1.10;;
48727;SDS011;34527;45.618;5.130;2023-08-06T06:50:08;2.92;;;1.10;;
48727;SDS011;34527;45.618;5.130;2023-08-06T06:52:35;4.43;;;1.20;;
48727;SDS011;34527;45.618;5.130;2023-08-06T06:55:00;2.25;;;0.90;;
48727;SDS011;34527;45.618;5.130;2023-08-06T06:57:26;2.63;;;1.02;;
48727;SDS011;34527;45.618;5.130;2023-08-06T06:59:51;4.35;;;1.30;;
48727;SDS011;34527;45.618;5.130;2023-08-06T07:02:17;5.25;;;1.17;;
48727;SDS011;34527;45.618;5.130;2023-08-06T07:04:43;4.45;;;1.17;;
48727;SDS011;34527;45.618;5.130;2023-08-06T07:07:08;5.88;;;1.00;;
48727;SDS011;34527;45.618;5.130;2023-08-06T07:09:35;1.40;;;0.65;;
48727;SDS011;34527;45.618;5.130;2023-08-06T07:12:00;3.35;;;0.90;;
48727;SDS011;34527;45.618;5.130;2023-08-06T07:14:26;2.35;;;0.85;;
48727;SDS011;34527;45.618;5.130;2023-08-06T07:16:53;3.88;;;0.95;;
48727;SDS011;34527;45.618;5.130;2023-08-06T07:19:19;3.28;;;0.95;;
48727;SDS011;34527;45.618;5.130;2023-08-06T07:21:44;3.60;;;0.82;;
48727;SDS011;34527;45.618;5.130;2023-08-06T07:24:10;3.08;;;0.95;;
48727;SDS011;34527;45.618;5.130;2023-08-06T07:26:36;3.40;;;1.10;;
48727;SDS011;34527;45.618;5.130;2023-08-06T07:29:02;2.70;;;0.95;;
48727;SDS011;34527;45.618;5.130;2023-08-06T07:31:28;6.47;;;1.42;;
48727;SDS011;34527;45.618;5.130;2023-08-06T07:33:53;3.05;;;1.05;;
48727;SDS011;34527;45.618;5.130;2023-08-06T07:36:19;2.47;;;1.00;;
48727;SDS011;34527;45.618;5.130;2023-08-06T07:38:45;1.83;;;0.85;;
48727;SDS011;34527;45.618;5.130;2023-08-06T07:41:10;3.08;;;0.95;;
48727;SDS011;34527;45.618;5.130;2023-08-06T07:43:36;2.80;;;1.17;;
48727;SDS011;34527;45.618;5.130;2023-08-06T07:46:02;3.85;;;1.27;;
48727;SDS011;34527;45.618;5.130;2023-08-06T07:48:28;1.95;;;1.00;;
48727;SDS011;34527;45.618;5.130;2023-08-06T07:50:54;4.43;;;1.10;;
48727;SDS011;34527;45.618;5.130;2023-08-06T07:53:23;4.05;;;1.00;;
48727;SDS011;34527;45.618;5.130;2023-08-06T07:55:52;1.85;;;0.98;;
48727;SDS011;34527;45.618;5.130;2023-08-06T07:58:22;3.38;;;0.95;;
48727;SDS011;34527;45.618;5.130;2023-08-06T08:00:49;2.33;;;0.90;;
48727;SDS011;34527;45.618;5.130;2023-08-06T08:03:15;2.92;;;0.90;;
48727;SDS011;34527;45.618;5.130;2023-08-06T08:05:41;3.83;;;1.00;;
48727;SDS011;34527;45.618;5.130;2023-08-06T08:08:08;3.10;;;1.00;;
48727;SDS011;34527;45.618;5.130;2023-08-06T08:10:34;4.53;;;1.10;;
48727;SDS011;34527;45.618;5.130;2023-08-06T08:13:02;6.20;;;1.42;;
48727;SDS011;34527;45.618;5.130;2023-08-06T08:15:29;3.38;;;1.10;;
48727;SDS011;34527;45.618;5.130;2023-08-06T08:17:55;2.35;;;1.10;;
48727;SDS011;34527;45.618;5.130;2023-08-06T08:20:22;1.83;;;0.80;;
48727;SDS011;34527;45.618;5.130;2023-08-06T08:22:48;3.30;;;1.25;;
48727;SDS011;34527;45.618;5.130;2023-08-06T08:25:13;3.05;;;1.05;;
48727;SDS011;34527;45.618;5.130;2023-08-06T08:27:40;1.70;;;0.93;;
48727;SDS011;34527;45.618;5.130;2023-08-06T08:30:06;1.95;;;1.00;;
48727;SDS011;34527;45.618;5.130;2023-08-06T08:32:31;3.63;;;1.20;;
48727;SDS011;34527;45.618;5.130;2023-08-06T08:34:57;2.60;;;1.27;;
48727;SDS011;34527;45.618;5.130;2023-08-06T08:37:23;3.10;;;1.05;;
48727;SDS011;34527;45.618;5.130;2023-08-06T08:39:49;2.40;;;0.95;;
48727;SDS011;34527;45.618;5.130;2023-08-06T08:42:15;2.17;;;0.75;;
48727;SDS011;34527;45.618;5.130;2023-08-06T08:44:44;4.65;;;1.00;;
48727;SDS011;34527;45.618;5.130;2023-08-06T08:47:10;5.03;;;1.10;;
48727;SDS011;34527;45.618;5.130;2023-08-06T08:49:36;2.35;;;0.70;;
48727;SDS011;34527;45.618;5.130;2023-08-06T08:52:03;2.67;;;1.30;;
48727;SDS011;34527;45.618;5.130;2023-08-06T08:54:35;5.22;;;1.33;;
48727;SDS011;34527;45.618;5.130;2023-08-06T08:57:03;3.63;;;1.10;;
48727;SDS011;34527;45.618;5.130;2023-08-06T08:59:29;3.20;;;1.10;;
48727;SDS011;34527;45.618;5.130;2023-08-06T09:01:55;4.20;;;1.23;;
48727;SDS011;34527;45.618;5.130;2023-08-06T09:04:21;2.20;;;0.90;;
48727;SDS011;34527;45.618;5.130;2023-08-06T09:06:50;2.97;;;1.13;;
48727;SDS011;34527;45.618;5.130;2023-08-06T09:09:17;1.63;;;0.75;;
48727;SDS011;34527;45.618;5.130;2023-08-06T09:11:59;1.58;;;0.90;;
48727;SDS011;34527;45.618;5.130;2023-08-06T09:14:26;1.58;;;0.80;;
48727;SDS011;34527;45.618;5.130;2023-08-06T09:16:52;2.80;;;0.90;;
48727;SDS011;34527;45.618;5.130;2023-08-06T09:19:19;2.97;;;0.70;;
48727;SDS011;34527;45.618;5.130;2023-08-06T09:21:45;3.30;;;0.80;;
48727;SDS011;34527;45.618;5.130;2023-08-06T09:24:14;2.67;;;1.00;;
48727;SDS011;34527;45.618;5.130;2023-08-06T09:26:41;4.57;;;1.25;;
48727;SDS011;34527;45.618;5.130;2023-08-06T09:29:09;2.47;;;1.20;;
48727;SDS011;34527;45.618;5.130;2023-08-06T09:31:45;1.75;;;1.00;;
48727;SDS011;34527;45.618;5.130;2023-08-06T09:34:22;2.78;;;1.10;;
48727;SDS011;34527;45.618;5.130;2023-08-06T09:36:48;4.80;;;1.17;;
48727;SDS011;34527;45.618;5.130;2023-08-06T09:39:19;4.30;;;1.23;;
48727;SDS011;34527;45.618;5.130;2023-08-06T09:41:46;3.38;;;1.23;;
48727;SDS011;34527;45.618;5.130;2023-08-06T09:44:18;3.75;;;1.30;;
48727;SDS011;34527;45.618;5.130;2023-08-06T09:49:17;4.53;;;1.30;;
48727;SDS011;34527;45.618;5.130;2023-08-06T09:51:43;6.40;;;1.15;;
48727;SDS011;34527;45.618;5.130;2023-08-06T09:54:11;1.90;;;0.90;;
48727;SDS011;34527;45.618;5.130;2023-08-06T09:56:38;2.72;;;1.08;;
48727;SDS011;34527;45.618;5.130;2023-08-06T09:59:05;3.03;;;0.85;;
48727;SDS011;34527;45.618;5.130;2023-08-06T10:01:34;1.35;;;0.77;;
48727;SDS011;34527;45.618;5.130;2023-08-06T10:04:04;2.72;;;1.00;;
48727;SDS011;34527;45.618;5.130;2023-08-06T10:06:35;1.92;;;0.82;;
48727;SDS011;34527;45.618;5.130;2023-08-06T10:09:01;2.47;;;0.95;;
48727;SDS011;34527;45.618;5.130;2023-08-06T10:11:28;1.65;;;0.65;;
48727;SDS011;34527;45.618;5.130;2023-08-06T10:14:03;3.83;;;1.40;;
48727;SDS011;34527;45.618;5.130;2023-08-06T10:16:37;2.45;;;1.17;;
48727;SDS011;34527;45.618;5.130;2023-08-06T10:19:07;3.22;;;1.20;;
48727;SDS011;34527;45.618;5.130;2023-08-06T10:21:37;1.05;;;0.80;;
48727;SDS011;34527;45.618;5.130;2023-08-06T10:24:03;3.10;;;1.00;;
48727;SDS011;34527;45.618;5.130;2023-08-06T10:26:35;2.00;;;0.90;;
48727;SDS011;34527;45.618;5.130;2023-08-06T10:29:01;4.07;;;1.08;;
48727;SDS011;34527;45.618;5.130;2023-08-06T10:31:54;2.65;;;0.95;;
48727;SDS011;34527;45.618;5.130;2023-08-06T10:34:23;1.65;;;0.95;;
48727;SDS011;34527;45.618;5.130;2023-08-06T10:36:48;4.15;;;1.27;;
48727;SDS011;34527;45.618;5.130;2023-08-06T10:39:14;2.10;;;1.17;;
48727;SDS011;34527;45.618;5.130;2023-08-06T10:41:42;2.58;;;1.52;;
48727;SDS011;34527;45.618;5.130;2023-08-06T10:44:09;4.22;;;1.50;;
48727;SDS011;34527;45.618;5.130;2023-08-06T10:46:36;3.85;;;1.20;;
48727;SDS011;34527;45.618;5.130;2023-08-06T10:49:03;4.13;;;1.25;;
48727;SDS011;34527;45.618;5.130;2023-08-06T10:51:29;2.05;;;1.15;;
48727;SDS011;34527;45.618;5.130;2023-08-06T10:53:55;4.65;;;1.30;;
48727;SDS011;34527;45.618;5.130;2023-08-06T10:56:23;2.65;;;1.27;;
48727;SDS011;34527;45.618;5.130;2023-08-06T10:58:56;6.20;;;1.38;;
48727;SDS011;34527;45.618;5.130;2023-08-06T11:01:22;2.28;;;1.08;;
48727;SDS011;34527;45.618;5.130;2023-08-06T11:03:49;4.03;;;1.40;;
48727;SDS011;34527;45.618;5.130;2023-08-06T11:06:19;5.50;;;1.30;;
48727;SDS011;34527;45.618;5.130;2023-08-06T11:08:50;3.58;;;1.45;;
48727;SDS011;34527;45.618;5.130;2023-08-06T11:11:17;2.47;;;1.23;;
48727;SDS011;34527;45.618;5.130;2023-08-06T11:13:43;2.85;;;1.17;;
48727;SDS011;34527;45.618;5.130;2023-08-06T11:16:14;1.95;;;1.33;;
48727;SDS011;34527;45.618;5.130;2023-08-06T11:18:40;2.40;;;1.15;;
48727;SDS011;34527;45.618;5.130;2023-08-06T11:21:07;3.17;;;1.13;;
48727;SDS011;34527;45.618;5.130;2023-08-06T11:23:33;2.33;;;1.42;;
48727;SDS011;34527;45.618;5.130;2023-08-06T11:26:00;4.55;;;1.23;;
48727;SDS011;34527;45.618;5.130;2023-08-06T11:28:25;5.10;;;1.65;;
48727;SDS011;34527;45.618;5.130;2023-08-06T11:30:51;1.88;;;1.00;;
48727;SDS011;34527;45.618;5.130;2023-08-06T11:33:21;3.35;;;1.15;;
48727;SDS011;34527;45.618;5.130;2023-08-06T11:35:47;2.10;;;1.02;;
48727;SDS011;34527;45.618;5.130;2023-08-06T11:38:13;1.75;;;0.93;;
48727;SDS011;34527;45.618;5.130;2023-08-06T11:40:39;2.08;;;1.35;;
48727;SDS011;34527;45.618;5.130;2023-08-06T11:43:05;1.70;;;1.10;;
48727;SDS011;34527;45.618;5.130;2023-08-06T11:45:31;2.97;;;1.27;;
48727;SDS011;34527;45.618;5.130;2023-08-06T11:48:00;1.20;;;1.02;;
48727;SDS011;34527;45.618;5.130;2023-08-06T11:50:26;2.88;;;1.30;;
48727;SDS011;34527;45.618;5.130;2023-08-06T11:52:59;2.05;;;1.02;;
48727;SDS011;34527;45.618;5.130;2023-08-06T11:55:26;4.50;;;1.23;;
48727;SDS011;34527;45.618;5.130;2023-08-06T11:57:56;3.83;;;1.15;;
48727;SDS011;34527;45.618;5.130;2023-08-06T12:00:23;1.95;;;0.98;;
48727;SDS011;34527;45.618;5.130;2023-08-06T12:02:50;3.47;;;1.05;;
48727;SDS011;34527;45.618;5.130;2023-08-06T12:07:49;3.35;;;1.20;;
48727;SDS011;34527;45.618;5.130;2023-08-06T12:10:20;3.08;;;1.17;;
48727;SDS011;34527;45.618;5.130;2023-08-06T12:12:46;2.63;;;1.23;;
48727;SDS011;34527;45.618;5.130;2023-08-06T12:15:12;4.07;;;1.38;;
48727;SDS011;34527;45.618;5.130;2023-08-06T12:17:38;3.45;;;1.30;;
48727;SDS011;34527;45.618;5.130;2023-08-06T12:20:05;3.13;;;1.20;;
48727;SDS011;34527;45.618;5.130;2023-08-06T12:22:32;1.52;;;1.00;;
48727;SDS011;34527;45.618;5.130;2023-08-06T12:25:03;3.33;;;1.20;;
48727;SDS011;34527;45.618;5.130;2023-08-06T12:27:33;3.83;;;1.23;;
48727;SDS011;34527;45.618;5.130;2023-08-06T12:30:03;2.70;;;1.20;;
48727;SDS011;34527;45.618;5.130;2023-08-06T12:32:29;4.25;;;1.38;;
48727;SDS011;34527;45.618;5.130;2023-08-06T12:34:55;3.10;;;1.27;;
48727;SDS011;34527;45.618;5.130;2023-08-06T12:37:21;3.58;;;1.45;;
48727;SDS011;34527;45.618;5.130;2023-08-06T12:39:46;2.05;;;1.10;;
48727;SDS011;34527;45.618;5.130;2023-08-06T12:42:12;4.20;;;1.38;;
48727;SDS011;34527;45.618;5.130;2023-08-06T12:44:38;3.10;;;1.30;;
48727;SDS011;34527;45.618;5.130;2023-08-06T12:47:03;3.92;;;1.30;;
48727;SDS011;34527;45.618;5.130;2023-08-06T12:49:29;2.10;;;1.08;;
48727;SDS011;34527;45.618;5.130;2023-08-06T12:51:56;3.00;;;1.10;;
48727;SDS011;34527;45.618;5.130;2023-08-06T12:54:24;2.15;;;1.30;;
48727;SDS011;34527;45.618;5.130;2023-08-06T12:56:50;2.85;;;1.20;;
48727;SDS011;34527;45.618;5.130;2023-08-06T12:59:16;2.90;;;1.40;;
48727;SDS011;34527;45.618;5.130;2023-08-06T13:01:43;2.17;;;1.00;;
48727;SDS011;34527;45.618;5.130;2023-08-06T13:04:09;3.03;;;1.13;;
48727;SDS011;34527;45.618;5.130;2023-08-06T13:06:35;2.67;;;1.10;;
48727;SDS011;34527;45.618;5.130;2023-08-06T13:09:02;2.13;;;1.00;;
48727;SDS011;34527;45.618;5.130;2023-08-06T13:11:29;4.72;;;1.48;;
48727;SDS011;34527;45.618;5.130;2023-08-06T13:13:56;4.03;;;1.05;;
48727;SDS011;34527;45.618;5.130;2023-08-06T13:16:32;1.85;;;1.23;;
48727;SDS011;34527;45.618;5.130;2023-08-06T13:18:58;3.28;;;1.15;;
48727;SDS011;34527;45.618;5.130;2023-08-06T13:21:24;1.55;;;1.00;;
48727;SDS011;34527;45.618;5.130;2023-08-06T13:23:49;2.65;;;0.85;;
48727;SDS011;34527;45.618;5.130;2023-08-06T13:26:15;2.35;;;1.08;;
48727;SDS011;34527;45.618;5.130;2023-08-06T13:28:41;3.67;;;0.90;;
48727;SDS011;34527;45.618;5.130;2023-08-06T13:31:07;2.47;;;1.30;;
48727;SDS011;34527;45.618;5.130;2023-08-06T13:33:32;2.20;;;1.02;;
48727;SDS011;34527;45.618;5.130;2023-08-06T13:35:58;2.55;;;1.52;;
48727;SDS011;34527;45.618;5.130;2023-08-06T13:38:24;1.42;;;0.80;;
48727;SDS011;34527;45.618;5.130;2023-08-06T13:40:49;2.00;;;1.00;;
48727;SDS011;34527;45.618;5.130;2023-08-06T13:43:15;1.60;;;1.23;;
48727;SDS011;34527;45.618;5.130;2023-08-06T13:45:42;4.13;;;1.20;;
48727;SDS011;34527;45.618;5.130;2023-08-06T13:48:07;1.08;;;0.98;;
48727;SDS011;34527;45.618;5.130;2023-08-06T13:50:35;2.85;;;1.38;;
48727;SDS011;34527;45.618;5.130;2023-08-06T13:53:01;2.17;;;1.20;;
48727;SDS011;34527;45.618;5.130;2023-08-06T13:55:27;2.00;;;0.90;;
48727;SDS011;34527;45.618;5.130;2023-08-06T13:57:53;3.17;;;1.10;;
48727;SDS011;34527;45.618;5.130;2023-08-06T14:00:18;3.90;;;1.20;;
48727;SDS011;34527;45.618;5.130;2023-08-06T14:02:44;3.22;;;0.98;;
48727;SDS011;34527;45.618;5.130;2023-08-06T14:05:10;1.90;;;1.10;;
48727;SDS011;34527;45.618;5.130;2023-08-06T14:07:35;2.50;;;1.10;;
48727;SDS011;34527;45.618;5.130;2023-08-06T14:10:01;2.45;;;1.20;;
48727;SDS011;34527;45.618;5.130;2023-08-06T14:12:26;3.35;;;0.80;;
48727;SDS011;34527;45.618;5.130;2023-08-06T14:14:52;3.40;;;1.02;;
48727;SDS011;34527;45.618;5.130;2023-08-06T14:17:18;1.60;;;1.00;;
48727;SDS011;34527;45.618;5.130;2023-08-06T14:19:43;1.75;;;0.98;;
48727;SDS011;34527;45.618;5.130;2023-08-06T14:22:09;2.80;;;1.00;;
48727;SDS011;34527;45.618;5.130;2023-08-06T14:24:34;3.05;;;1.10;;
48727;SDS011;34527;45.618;5.130;2023-08-06T14:27:00;3.08;;;1.23;;
48727;SDS011;34527;45.618;5.130;2023-08-06T14:29:26;3.40;;;1.48;;
48727;SDS011;34527;45.618;5.130;2023-08-06T14:31:51;1.88;;;1.23;;
48727;SDS011;34527;45.618;5.130;2023-08-06T14:34:17;3.05;;;1.20;;
48727;SDS011;34527;45.618;5.130;2023-08-06T14:36:42;5.15;;;1.20;;
48727;SDS011;34527;45.618;5.130;2023-08-06T14:39:08;3.90;;;1.20;;
48727;SDS011;34527;45.618;5.130;2023-08-06T14:41:33;4.03;;;1.20;;
48727;SDS011;34527;45.618;5.130;2023-08-06T14:43:59;3.03;;;1.20;;
48727;SDS011;34527;45.618;5.130;2023-08-06T14:46:25;3.03;;;1.00;;
48727;SDS011;34527;45.618;5.130;2023-08-06T14:48:50;4.35;;;1.23;;
48727;SDS011;34527;45.618;5.130;2023-08-06T14:51:16;3.38;;;1.30;;
48727;SDS011;34527;45.618;5.130;2023-08-06T14:53:44;2.33;;;1.33;;
48727;SDS011;34527;45.618;5.130;2023-08-06T14:56:09;3.75;;;1.10;;
48727;SDS011;34527;45.618;5.130;2023-08-06T14:58:35;3.35;;;1.25;;